createdAt,value
2023-05-04T00:02:14.222Z,5.3
2023-05-04T00:04:40.869Z,5.1
2023-05-04T00:07:07.477Z,4.9
2023-05-04T00:09:34.107Z,5.2
2023-05-04T00:12:00.723Z,5
2023-05-04T00:14:27.346Z,5
2023-05-04T00:16:52.478Z,4.7
2023-05-04T00:19:19.102Z,4.7
2023-05-04T00:21:45.734Z,4.7
2023-05-04T00:24:12.355Z,4.9
2023-05-04T00:26:38.974Z,5
2023-05-04T00:29:05.593Z,4.8
2023-05-04T00:31:32.218Z,5.2
2023-05-04T00:33:58.834Z,4.9
2023-05-04T00:36:25.456Z,5.1
2023-05-04T00:38:52.094Z,5
2023-05-04T00:41:18.768Z,5.4
2023-05-04T00:43:45.333Z,4.9
2023-05-04T00:46:11.961Z,4.7
2023-05-04T00:48:37.096Z,4.8
2023-05-04T00:53:30.330Z,5
2023-05-04T00:55:56.952Z,5.5
2023-05-04T00:58:23.578Z,5.5
2023-05-04T01:00:50.195Z,5.7
2023-05-04T01:03:16.816Z,5.5
2023-05-04T01:05:43.498Z,6.4
2023-05-04T01:08:10.071Z,5.4
2023-05-04T01:10:36.695Z,5.6
2023-05-04T01:13:03.312Z,5.2
2023-05-04T01:15:29.922Z,5.6
2023-05-04T01:17:56.550Z,5.3
2023-05-04T01:20:21.677Z,5.4
2023-05-04T01:22:48.315Z,5.6
2023-05-04T01:25:14.932Z,6.3
2023-05-04T01:27:41.558Z,6
2023-05-04T01:30:08.185Z,5.7
2023-05-04T01:32:34.791Z,6.3
2023-05-04T01:35:01.432Z,6.6
2023-05-04T01:37:28.051Z,6.3
2023-05-04T01:39:54.662Z,6.1
2023-05-04T01:42:21.300Z,6.3
2023-05-04T01:44:47.905Z,6.1
2023-05-04T01:47:14.524Z,6.3
2023-05-04T01:49:41.159Z,6.4
2023-05-04T01:52:07.779Z,6.5
2023-05-04T01:54:32.907Z,6.6
2023-05-04T01:56:59.525Z,7
2023-05-04T01:59:26.163Z,6.7
2023-05-04T02:01:52.767Z,7.1
2023-05-04T02:06:45.307Z,7.5
2023-05-04T02:09:11.904Z,6.7
2023-05-04T02:11:38.527Z,7.4
2023-05-04T02:14:05.143Z,7.5
2023-05-04T02:16:31.805Z,6.4
2023-05-04T02:18:58.394Z,7.3
2023-05-04T02:21:25.018Z,6.4
2023-05-04T02:23:51.620Z,7
2023-05-04T02:26:18.261Z,7.5
2023-05-04T02:28:43.388Z,6.6
2023-05-04T02:31:10.011Z,7.7
2023-05-04T02:33:36.628Z,7.2
2023-05-04T02:36:03.284Z,6.9
2023-05-04T02:38:29.870Z,7
2023-05-04T02:40:56.493Z,6.8
2023-05-04T02:43:23.140Z,7.2
2023-05-04T02:45:49.756Z,7
2023-05-04T02:50:43.011Z,7.4
2023-05-04T02:53:09.605Z,8.3
2023-05-04T02:55:36.253Z,8.4
2023-05-04T02:58:02.866Z,7.8
2023-05-04T03:00:28.008Z,8.2
2023-05-04T03:02:54.616Z,8.2
2023-05-04T03:05:21.247Z,8
2023-05-04T03:07:47.868Z,7.9
2023-05-04T03:10:14.569Z,8.2
2023-05-04T03:12:41.111Z,9
2023-05-04T03:15:07.763Z,8.3
2023-05-04T03:17:34.360Z,8.8
2023-05-04T03:20:00.990Z,9
2023-05-04T03:22:27.608Z,9.1
2023-05-04T03:24:54.229Z,8.4
2023-05-04T03:27:20.881Z,8.6
2023-05-04T03:29:47.502Z,9.6
2023-05-04T03:32:12.598Z,9
2023-05-04T03:34:39.217Z,8.5
2023-05-04T03:37:05.845Z,9.1
2023-05-04T03:39:32.470Z,9.3
2023-05-04T03:41:59.091Z,8.3
2023-05-04T03:44:25.730Z,9
2023-05-04T03:46:52.341Z,8
2023-05-04T03:49:18.958Z,9.4
2023-05-04T03:51:45.582Z,8.6
2023-05-04T03:54:12.202Z,9.6
2023-05-04T03:56:38.850Z,8.8
2023-05-04T03:59:05.445Z,9.2
2023-05-04T04:03:58.707Z,8.9
2023-05-04T04:06:23.829Z,8.7
2023-05-04T04:08:50.442Z,8.9
2023-05-04T04:11:17.067Z,8.3
2023-05-04T04:13:43.696Z,8.9
2023-05-04T04:16:10.317Z,8.2
2023-05-04T04:18:36.945Z,7.9
2023-05-04T04:21:03.590Z,8.3
2023-05-04T04:23:30.290Z,9.1
2023-05-04T04:25:56.810Z,8.9
2023-05-04T04:28:23.433Z,8.3
2023-05-04T04:30:50.053Z,8.4
2023-05-04T04:33:16.696Z,8.3
2023-05-04T04:35:43.289Z,8.5
2023-05-04T04:38:08.437Z,8.5
2023-05-04T04:40:35.061Z,9.4
2023-05-04T04:43:00.185Z,10.7
2023-05-04T04:45:26.808Z,10.7
2023-05-04T04:47:53.429Z,10.6
2023-05-04T04:50:20.060Z,9.9
2023-05-04T04:52:46.673Z,10.3
2023-05-04T04:55:13.305Z,10
2023-05-04T04:57:39.925Z,9.7
2023-05-04T05:00:06.545Z,8.9
2023-05-04T05:02:33.178Z,9.8
2023-05-04T05:04:59.814Z,9.4
2023-05-04T05:07:26.414Z,10.3
2023-05-04T05:09:53.060Z,10.1
2023-05-04T05:12:19.659Z,9.9
2023-05-04T05:14:44.787Z,9.2
2023-05-04T05:17:11.418Z,9.5
2023-05-04T05:22:04.700Z,9.5
2023-05-04T05:24:31.333Z,9.6
2023-05-04T05:26:58.038Z,9.7
2023-05-04T05:29:24.525Z,10
2023-05-04T05:31:51.153Z,9.1
2023-05-04T05:34:17.776Z,9.9
2023-05-04T05:36:44.407Z,9.3
2023-05-04T05:39:11.021Z,9.3
2023-05-04T05:41:37.647Z,9.6
2023-05-04T05:44:04.298Z,9.4
2023-05-04T05:46:30.885Z,10.2
2023-05-04T05:48:57.514Z,9.5
2023-05-04T05:51:24.125Z,9.3
2023-05-04T05:53:49.258Z,9.9
2023-05-04T05:56:15.878Z,9.6
2023-05-04T05:58:42.517Z,10.6
2023-05-04T06:01:09.136Z,9.7
2023-05-04T06:03:35.768Z,10.1
2023-05-04T06:06:02.382Z,10
2023-05-04T06:08:29.019Z,9.3
2023-05-04T06:10:55.624Z,10.2
2023-05-04T06:13:22.249Z,9.8
2023-05-04T06:15:48.877Z,9.5
2023-05-04T06:18:15.559Z,9.8
2023-05-04T06:20:42.138Z,9.3
2023-05-04T06:23:08.774Z,10.4
2023-05-04T06:25:33.853Z,11.5
2023-05-04T06:28:00.633Z,10.8
2023-05-04T06:30:27.245Z,10.1
2023-05-04T06:32:53.857Z,11.2
2023-05-04T06:35:20.478Z,11.7
2023-05-04T06:37:47.124Z,11.5
2023-05-04T06:40:13.623Z,11.9
2023-05-04T06:42:40.215Z,11.2
2023-05-04T06:45:06.847Z,11.4
2023-05-04T06:47:33.464Z,11.7
2023-05-04T06:50:00.088Z,11.5
2023-05-04T06:52:26.728Z,11.3
2023-05-04T06:54:53.345Z,11.1
2023-05-04T06:57:19.966Z,10.8
2023-05-04T06:59:45.080Z,10.4
2023-05-04T07:02:11.706Z,10.9
2023-05-04T07:04:38.338Z,9
2023-05-04T07:07:04.954Z,9.4
2023-05-04T07:09:31.581Z,10.2
2023-05-04T07:11:58.198Z,8.2
2023-05-04T07:14:24.823Z,8.6
2023-05-04T07:16:51.455Z,8.3
2023-05-04T07:19:18.060Z,8.7
2023-05-04T07:21:44.693Z,8.7
2023-05-04T07:24:11.317Z,8.8
2023-05-04T07:29:04.574Z,7.5
2023-05-04T07:31:29.694Z,7
2023-05-04T07:33:56.307Z,8.2
2023-05-04T07:36:22.931Z,7.7
2023-05-04T07:38:49.551Z,7.3
2023-05-04T07:41:16.175Z,6.8
2023-05-04T07:43:42.804Z,7.4
2023-05-04T07:46:09.426Z,7
2023-05-04T07:48:36.034Z,7.1
2023-05-04T07:51:02.670Z,6.5
2023-05-04T07:53:29.295Z,6.7
2023-05-04T07:55:55.910Z,6.9
2023-05-04T07:58:22.536Z,5.8
2023-05-04T08:00:49.161Z,6.1
2023-05-04T08:03:14.289Z,5.7
2023-05-04T08:05:40.914Z,6
2023-05-04T08:08:07.524Z,5.7
2023-05-04T08:10:34.149Z,6.2
2023-05-04T08:13:00.793Z,5.5
2023-05-04T08:15:27.412Z,4.8
2023-05-04T08:20:20.771Z,4.8
2023-05-04T08:22:47.276Z,5.1
2023-05-04T08:25:13.953Z,5.4
2023-05-04T08:30:07.146Z,5.5
2023-05-04T08:32:33.771Z,4.6
2023-05-04T08:35:00.540Z,5.2
2023-05-04T08:39:52.143Z,5.2
2023-05-04T08:42:18.761Z,5.4
2023-05-04T08:44:43.893Z,5.4
2023-05-04T08:47:10.521Z,4.9
2023-05-04T08:49:35.659Z,5.3
2023-05-04T08:52:02.262Z,4.9
2023-05-04T08:56:55.625Z,4.8
2023-05-04T08:59:22.136Z,5.2
2023-05-04T09:01:48.744Z,4.8
2023-05-04T09:04:15.379Z,5
2023-05-04T09:06:42.825Z,4.7
2023-05-04T09:09:08.627Z,4.9
2023-05-04T09:11:35.246Z,5.7
2023-05-04T09:14:01.866Z,4.6
2023-05-04T09:16:28.496Z,5
2023-05-04T09:18:55.182Z,5.2
2023-05-04T09:21:21.753Z,5.4
2023-05-04T09:23:48.369Z,4.9
2023-05-04T09:26:14.990Z,4.3
2023-05-04T09:28:40.108Z,5.1
2023-05-04T09:31:06.744Z,5
2023-05-04T09:33:33.346Z,5
2023-05-04T09:35:59.971Z,5.5
2023-05-04T09:38:26.610Z,5.2
2023-05-04T09:43:18.362Z,5.3
2023-05-04T09:45:43.490Z,4.7
2023-05-04T09:48:08.615Z,4.8
2023-05-04T09:50:35.233Z,4.7
2023-05-04T09:53:01.858Z,4.4
2023-05-04T09:55:28.473Z,5.1
2023-05-04T10:00:21.728Z,4.3
2023-05-04T10:05:13.471Z,4.7
2023-05-04T10:07:40.130Z,4.6
2023-05-04T10:10:06.787Z,4.6
2023-05-04T10:14:59.960Z,4.8
2023-05-04T10:19:53.214Z,4.9
2023-05-04T10:22:19.826Z,4.6
2023-05-04T10:24:46.489Z,4.7
2023-05-04T10:27:11.586Z,5.6
2023-05-04T10:29:36.760Z,4.7
2023-05-04T10:32:03.406Z,4.2
2023-05-04T10:34:30.099Z,4.7
2023-05-04T10:36:56.578Z,4.4
2023-05-04T10:39:23.204Z,4.5
2023-05-04T10:41:49.840Z,4.4
2023-05-04T10:46:43.075Z,4.5
2023-05-04T10:49:09.695Z,4
2023-05-04T10:51:36.368Z,3.6
2023-05-04T10:54:02.970Z,4.2
2023-05-04T10:58:56.189Z,4.5
2023-05-04T11:01:22.813Z,3.7
2023-05-04T11:03:49.438Z,4.7
2023-05-04T11:11:07.826Z,4
2023-05-04T11:13:34.462Z,3.5
2023-05-04T11:15:59.585Z,5.1
2023-05-04T11:20:52.818Z,3.7
2023-05-04T11:23:17.957Z,5.2
2023-05-04T11:25:44.625Z,5.2
2023-05-04T11:28:11.212Z,3.8
2023-05-04T11:30:37.947Z,4.1
2023-05-04T11:33:04.435Z,3.9
2023-05-04T11:35:31.062Z,4.1
2023-05-04T11:37:57.685Z,4.8
2023-05-04T11:40:24.307Z,5.7
2023-05-04T11:45:17.564Z,4.4
2023-05-04T11:47:44.191Z,4.1
2023-05-04T11:55:04.074Z,4.7
2023-05-04T11:57:30.675Z,5.6
2023-05-04T12:14:37.037Z,4.9
2023-05-04T12:17:03.655Z,4.6
2023-05-04T12:26:50.204Z,5.9
2023-05-04T12:36:36.625Z,5.2
2023-05-04T12:39:03.258Z,5.7
2023-05-04T12:41:29.878Z,5.8
2023-05-04T12:43:56.497Z,5.4
2023-05-04T12:48:49.764Z,5.4
2023-05-04T12:53:43.077Z,6.3
2023-05-04T12:56:09.734Z,5.5
2023-05-04T13:03:29.804Z,4.7
2023-05-04T13:05:56.469Z,6.5
2023-05-04T13:08:23.173Z,5.6
2023-05-04T13:10:49.838Z,6.6
2023-05-04T13:15:43.221Z,7.1
2023-05-04T13:18:09.904Z,6.3
2023-05-04T13:20:35.149Z,6.9
2023-05-04T13:23:01.836Z,5.7
2023-05-04T13:25:28.540Z,6.1
2023-05-04T13:30:21.905Z,6.2
2023-05-04T13:32:48.567Z,7.3
2023-05-04T13:35:15.261Z,6
2023-05-04T13:37:41.939Z,6.6
2023-05-04T13:40:08.627Z,6.5
2023-05-04T13:45:01.994Z,6.6
2023-05-04T13:47:28.685Z,6.1
2023-05-04T13:49:55.371Z,5.6
2023-05-04T13:54:48.731Z,5.5
2023-05-04T13:59:42.115Z,6.7
2023-05-04T14:02:08.806Z,6.1
2023-05-04T14:07:02.168Z,5.8
2023-05-04T14:09:28.845Z,6.1
2023-05-04T14:14:20.746Z,5.2
2023-05-04T14:16:47.442Z,5.9
2023-05-04T14:21:40.794Z,5.2
2023-05-04T14:24:07.480Z,5.5
2023-05-04T14:29:00.858Z,5.8
2023-05-04T14:31:27.548Z,5.5
2023-05-04T14:36:20.895Z,5.5
2023-05-04T14:38:47.606Z,5.3
2023-05-04T14:46:07.659Z,5.3
2023-05-04T14:48:34.352Z,4.5
2023-05-04T14:51:01.039Z,5
2023-05-04T14:53:27.751Z,5.3
2023-05-04T14:58:21.090Z,5.3
2023-05-04T15:00:46.305Z,5.2
2023-05-04T15:03:12.988Z,4.9
2023-05-04T15:12:59.738Z,5.1
2023-05-04T15:15:26.402Z,4.7
2023-05-04T15:17:53.096Z,4.9
2023-05-04T15:30:06.524Z,5.7
2023-05-04T15:32:31.785Z,5
2023-05-04T15:37:25.228Z,4.8
2023-05-04T15:44:45.150Z,5.4
2023-05-04T15:47:12.058Z,4.5
2023-05-04T15:49:38.578Z,3.8
2023-05-04T15:52:05.305Z,4.6
2023-05-04T15:54:31.976Z,5.1
2023-05-04T15:56:58.774Z,4.6
2023-05-04T15:59:25.443Z,4.7
2023-05-04T16:01:52.139Z,5.1
2023-05-04T16:04:18.751Z,4.9
2023-05-04T16:06:45.503Z,5.3
2023-05-04T16:11:38.762Z,5.3
2023-05-04T16:14:05.485Z,5.1
2023-05-04T16:16:30.602Z,5.8
2023-05-04T16:18:57.300Z,4.6
2023-05-04T16:21:24.069Z,5.5
2023-05-04T16:26:17.362Z,4.8
2023-05-04T16:28:44.028Z,4.5
2023-05-04T16:31:10.714Z,5.1
2023-05-04T16:36:04.085Z,4.5
2023-05-04T16:40:57.466Z,4.6
2023-05-04T16:43:24.138Z,4.2
2023-05-04T16:45:50.826Z,3.9
2023-05-04T16:48:17.521Z,4.3
2023-05-04T16:50:42.732Z,4.4
2023-05-04T16:58:02.820Z,4.7
2023-05-04T17:05:22.885Z,4.1
2023-05-04T17:07:49.637Z,4
2023-05-04T17:10:16.217Z,4.1
2023-05-04T17:12:42.894Z,4.3
2023-05-04T17:17:36.265Z,3.8
2023-05-04T17:20:02.962Z,4.3
2023-05-04T17:24:56.316Z,4.5
2023-05-04T17:27:21.554Z,4.1
2023-05-04T17:34:41.585Z,3.7
2023-05-04T17:42:01.684Z,3.4
2023-05-04T17:46:55.012Z,4.1
2023-05-04T17:49:21.718Z,3.9
2023-05-04T17:51:48.419Z,3.3
2023-05-04T17:54:15.175Z,4.1
2023-05-04T17:56:41.835Z,4.1
2023-05-04T17:59:08.443Z,4.7
2023-05-04T18:01:35.217Z,3.8
2023-05-04T18:04:01.837Z,3.9
2023-05-04T18:08:55.178Z,4.1
2023-05-04T18:16:15.243Z,4.5
2023-05-04T18:18:41.929Z,4
2023-05-04T18:21:07.142Z,3.7
2023-05-04T18:23:33.836Z,4
2023-05-04T18:26:00.536Z,4.2
2023-05-04T18:28:27.228Z,4.4
2023-05-04T18:33:20.593Z,4
2023-05-04T18:35:47.265Z,4.5
2023-05-04T18:38:13.947Z,4.1
2023-05-04T18:43:07.321Z,4.3
2023-05-04T18:48:00.671Z,4.3
2023-05-04T18:52:54.038Z,4.1
2023-05-04T18:55:20.730Z,4.5
2023-05-04T18:57:47.447Z,4.8
2023-05-04T19:00:14.218Z,4.6
2023-05-04T19:02:40.801Z,4.8
2023-05-04T19:07:32.673Z,4.8
2023-05-04T19:09:59.473Z,4.3
2023-05-04T19:17:19.525Z,4.7
2023-05-04T19:19:46.177Z,5.2
2023-05-04T19:22:12.802Z,5
2023-05-04T19:27:06.243Z,5
2023-05-04T19:29:32.902Z,5.2
2023-05-04T19:31:59.585Z,5.4
2023-05-04T19:34:26.241Z,5.7
2023-05-04T19:39:18.191Z,5.7
2023-05-04T19:41:44.818Z,5.2
2023-05-04T19:46:38.167Z,5.7
2023-05-04T19:53:58.208Z,5.6
2023-05-04T19:56:24.969Z,5
2023-05-04T19:58:51.661Z,5.1
2023-05-04T20:03:44.971Z,5.2
2023-05-04T20:08:38.412Z,5.5
2023-05-04T20:11:05.116Z,5.7
2023-05-04T20:13:30.390Z,5.5
2023-05-04T20:15:57.061Z,6.1
2023-05-04T20:23:16.983Z,5.7
2023-05-04T20:28:10.352Z,6
2023-05-04T20:30:37.051Z,5.8
2023-05-04T20:35:30.391Z,5.9
2023-05-04T20:37:57.072Z,5.9
2023-05-04T20:40:23.800Z,6.2
2023-05-04T20:42:50.439Z,6.5
2023-05-04T20:45:17.181Z,6.3
2023-05-04T20:47:43.804Z,6.5
2023-05-04T20:50:10.503Z,6.7
2023-05-04T20:52:37.189Z,6.4
2023-05-04T20:55:03.869Z,6.1
2023-05-04T20:57:29.099Z,6
2023-05-04T20:59:55.753Z,6.2
2023-05-04T21:02:22.462Z,5.5
2023-05-04T21:04:49.150Z,5.9
2023-05-04T21:07:15.821Z,6.6
2023-05-04T21:09:42.522Z,6.7
2023-05-04T21:14:35.893Z,6
2023-05-04T21:17:02.615Z,6.1
2023-05-04T21:19:29.264Z,5.9
2023-05-04T21:21:55.966Z,6.4
2023-05-04T21:24:22.668Z,6.9
2023-05-04T21:26:49.359Z,5.9
2023-05-04T21:29:15.998Z,6.5
2023-05-04T21:34:07.946Z,6.9
2023-05-04T21:36:33.190Z,6.3
2023-05-04T21:38:59.861Z,6.1
2023-05-04T21:41:26.541Z,5.5
2023-05-04T21:43:53.242Z,6.8
2023-05-04T21:46:19.917Z,6.6
2023-05-04T21:48:46.592Z,6.1
2023-05-04T21:51:13.311Z,6.2
2023-05-04T21:53:39.976Z,6.4
2023-05-04T21:56:06.667Z,6.7
2023-05-04T21:58:33.339Z,6
2023-05-04T22:05:53.392Z,6.6
2023-05-04T22:08:20.084Z,6
2023-05-04T22:10:45.327Z,6.7
2023-05-04T22:13:11.970Z,6.5
2023-05-04T22:15:38.661Z,6.4
2023-05-04T22:18:05.346Z,7.3
2023-05-04T22:22:58.740Z,7
2023-05-04T22:25:25.412Z,6.5
2023-05-04T22:32:45.464Z,7.2
2023-05-04T22:35:12.136Z,6.5
2023-05-04T22:37:38.840Z,7.1
2023-05-04T22:40:05.506Z,6.1
2023-05-04T22:42:31.816Z,6.5
2023-05-04T22:47:25.180Z,6.3
2023-05-04T22:49:51.472Z,6.8
2023-05-04T22:52:18.264Z,6
2023-05-04T22:54:44.845Z,6
2023-05-04T22:57:10.059Z,6
2023-05-04T22:59:36.760Z,6.7
2023-05-04T23:02:03.431Z,7.2
2023-05-04T23:04:30.116Z,6.5
2023-05-04T23:06:56.798Z,6.7
2023-05-04T23:09:23.497Z,6.4
2023-05-04T23:11:50.169Z,6.1
2023-05-04T23:14:16.854Z,6.6
2023-05-04T23:16:43.537Z,6.7
2023-05-04T23:19:10.227Z,7.1
2023-05-04T23:21:36.895Z,7
2023-05-04T23:26:30.268Z,6.6
2023-05-04T23:28:55.572Z,6.6
2023-05-04T23:31:22.183Z,6.9
2023-05-04T23:33:48.856Z,6.6
2023-05-04T23:36:15.552Z,5.9
2023-05-04T23:38:42.223Z,7.2
2023-05-04T23:41:09.073Z,7.2
2023-05-04T23:43:35.599Z,6.9
2023-05-04T23:46:02.276Z,7.4
2023-05-04T23:48:28.966Z,6.6
2023-05-04T23:50:55.649Z,6.6
2023-05-04T23:53:22.335Z,7
